KBNO/BNO METAR and TAF weather

Enter ICAO airport designator
Station Type Date Time Source
KBNO METAR 2018/12/12 22:53 UTC NOAA

KBNO 122253Z AUTO 21005KT 10SM FEW120 01/M05 A3031 RMK AO2 SLP286 T00061050


Station Type Date Time Source
KBNO Decoded METAR 2018/12/12 22:53 UTC NOAA

BURNS MUNICIPAL AIRPORT, OR, United States (KBNO) 43-36N 118-57W 1264M
Dec 12, 2018 - 05:53 PM EST / 2018.12.12 2253 UTC
Wind: from the SSW (210 degrees) at 6 MPH (5 KT):0
Visibility: 10 mile(s):0
Sky conditions: mostly clear
Temperature: 33.1 F (0.6 C)
Windchill: 28 F (-2 C):1
Dew Point: 23.0 F (-5.0 C)
Relative Humidity: 66%
Pressure (altimeter): 30.31 in. Hg (1026 hPa)
ob: KBNO 122253Z AUTO 21005KT 10SM FEW120 01/M05 A3031 RMK AO2 SLP286 T00061050
cycle: 23

Station Type Date Time Source
KBNO TAF 2018/12/12 22:06 UTC NOAA

TAF
AMD KBNO 122203Z 1222/1318 22010KT P6SM SCT030 BKN120
FM130000 VRB04KT P6SM BKN060 BKN120
FM131200 VRB04KT P6SM BKN100


Example: see airport list